Time;durP1;ratioP1;P1;durP2;ratioP2;P2;SDS_P1;SDS_P2;PMS_P1;PMS_P2;Temp;Humidity;BMP_temperature;BMP_pressure;BME280_temperature;BME280_humidity;BME280_pressure;Samples;Min_cycle;Max_cycle;Signal;HPM_P1;HPM_P2
2022/03/16 00:02:53;;;;;;;21.77;16.17;;;;;;;;;;6183680;28;20250;-73
2022/03/16 00:06:16;;;;;;;20.60;15.73;;;;;;;;;;6184274;28;20249;-73
2022/03/16 00:09:37;;;;;;;18.17;16.20;;;;;;;;;;6188976;28;20253;-73
2022/03/16 00:12:58;;;;;;;21.40;16.10;;;;;;;;;;6183498;28;20486;-74
2022/03/16 00:16:19;;;;;;;22.37;17.30;;;;;;;;;;6180626;28;20463;-73
2022/03/16 00:19:41;;;;;;;23.97;17.53;;;;;;;;;;6183813;28;20253;-73
2022/03/16 00:23:03;;;;;;;22.43;16.33;;;;;;;;;;6184648;28;20517;-73
2022/03/16 00:26:23;;;;;;;20.40;16.27;;;;;;;;;;6190244;28;20332;-73
2022/03/16 00:29:44;;;;;;;26.43;19.73;;;;;;;;;;6188378;28;20242;-73
2022/03/16 00:33:06;;;;;;;20.57;16.00;;;;;;;;;;6183344;28;20230;-73
2022/03/16 00:36:26;;;;;;;21.80;15.77;;;;;;;;;;6172932;28;20222;-72
2022/03/16 00:39:49;;;;;;;24.70;17.43;;;;;;;;;;6170894;28;20222;-73
2022/03/16 00:43:10;;;;;;;21.13;17.87;;;;;;;;;;6184932;28;22080;-73
2022/03/16 00:46:31;;;;;;;22.60;17.50;;;;;;;;;;6186982;28;20230;-73
2022/03/16 00:49:52;;;;;;;21.90;17.33;;;;;;;;;;6184381;28;20237;-73
2022/03/16 00:53:13;;;;;;;21.17;18.00;;;;;;;;;;6181448;28;20297;-74
2022/03/16 00:56:37;;;;;;;23.10;18.00;;;;;;;;;;6183179;28;20238;-72
2022/03/16 00:59:58;;;;;;;20.43;16.07;;;;;;;;;;6182223;28;20225;-72
2022/03/16 01:03:19;;;;;;;18.23;14.70;;;;;;;;;;6190806;28;20918;-73
2022/03/16 01:06:40;;;;;;;24.73;18.20;;;;;;;;;;6182133;28;20226;-73
2022/03/16 01:10:01;;;;;;;22.37;17.53;;;;;;;;;;6170806;28;20225;-73
2022/03/16 01:13:24;;;;;;;19.77;15.63;;;;;;;;;;6173078;28;20269;-74
2022/03/16 01:16:44;;;;;;;20.37;16.97;;;;;;;;;;6183314;28;20277;-73
2022/03/16 01:20:07;;;;;;;18.20;15.20;;;;;;;;;;6187218;28;20230;-74
2022/03/16 01:23:28;;;;;;;20.13;15.30;;;;;;;;;;6170352;28;20222;-73
2022/03/16 01:26:49;;;;;;;22.90;19.17;;;;;;;;;;6174533;28;20233;-74
2022/03/16 01:30:13;;;;;;;21.20;17.00;;;;;;;;;;6181087;28;20324;-73
2022/03/16 01:33:34;;;;;;;22.67;17.03;;;;;;;;;;6188704;28;20238;-73
2022/03/16 01:36:55;;;;;;;22.13;16.67;;;;;;;;;;6179331;28;20234;-74
2022/03/16 01:40:16;;;;;;;21.67;17.23;;;;;;;;;;6192124;28;20234;-74
2022/03/16 01:43:37;;;;;;;20.03;16.67;;;;;;;;;;6189538;28;20918;-75
2022/03/16 01:47:00;;;;;;;18.53;16.67;;;;;;;;;;6188079;28;20592;-74
2022/03/16 01:50:21;;;;;;;18.57;16.57;;;;;;;;;;6172592;28;20254;-74
2022/03/16 01:53:42;;;;;;;19.37;16.20;;;;;;;;;;6195318;28;20277;-73
2022/03/16 01:57:03;;;;;;;24.73;19.73;;;;;;;;;;6178697;28;20237;-73
2022/03/16 02:00:24;;;;;;;22.47;15.43;;;;;;;;;;6185597;28;20230;-73
2022/03/16 02:03:46;;;;;;;21.20;16.33;;;;;;;;;;6175487;28;20292;-73
2022/03/16 02:07:07;;;;;;;21.67;17.87;;;;;;;;;;6189257;28;20229;-74
2022/03/16 02:10:28;;;;;;;21.17;16.97;;;;;;;;;;6166402;28;20609;-73
2022/03/16 02:13:49;;;;;;;24.60;18.23;;;;;;;;;;6189522;28;20757;-73
2022/03/16 02:17:10;;;;;;;18.80;16.80;;;;;;;;;;6188475;28;20241;-72
2022/03/16 02:20:32;;;;;;;23.17;18.50;;;;;;;;;;6189632;28;20233;-73
2022/03/16 02:23:55;;;;;;;22.53;18.40;;;;;;;;;;6188837;28;20340;-73
2022/03/16 02:27:15;;;;;;;24.03;18.03;;;;;;;;;;6184782;28;20249;-73
2022/03/16 02:30:36;;;;;;;23.97;19.07;;;;;;;;;;6187089;28;20233;-73
2022/03/16 02:33:57;;;;;;;25.53;19.10;;;;;;;;;;6187336;28;20506;-73
2022/03/16 02:37:18;;;;;;;27.23;20.33;;;;;;;;;;6187416;28;20241;-75
2022/03/16 02:40:41;;;;;;;27.93;21.30;;;;;;;;;;6183955;28;20317;-74
2022/03/16 02:44:02;;;;;;;23.23;18.90;;;;;;;;;;6186155;28;20233;-73
2022/03/16 02:47:24;;;;;;;22.73;18.23;;;;;;;;;;6186442;28;20333;-72
2022/03/16 02:50:45;;;;;;;22.43;18.83;;;;;;;;;;6189506;28;20612;-73
2022/03/16 02:54:06;;;;;;;22.10;17.23;;;;;;;;;;6182733;28;20242;-73
2022/03/16 02:57:28;;;;;;;25.57;17.73;;;;;;;;;;6189945;28;20218;-74
2022/03/16 03:00:49;;;;;;;19.73;17.47;;;;;;;;;;6188642;28;20288;-74
2022/03/16 03:04:10;;;;;;;23.53;19.20;;;;;;;;;;6184167;28;20243;-73
2022/03/16 03:07:31;;;;;;;21.73;17.73;;;;;;;;;;6189382;28;20242;-73
2022/03/16 03:10:52;;;;;;;24.37;18.43;;;;;;;;;;6185827;28;20225;-73
2022/03/16 03:14:14;;;;;;;21.50;18.07;;;;;;;;;;6183691;28;22824;-73
2022/03/16 03:17:35;;;;;;;22.47;18.00;;;;;;;;;;6186129;28;20226;-74
2022/03/16 03:20:56;;;;;;;23.60;18.17;;;;;;;;;;6188141;28;20363;-73
2022/03/16 03:24:16;;;;;;;26.83;18.20;;;;;;;;;;6185603;28;20257;-73
2022/03/16 03:27:37;;;;;;;23.23;18.00;;;;;;;;;;6187797;28;20245;-73
2022/03/16 03:30:59;;;;;;;21.00;15.97;;;;;;;;;;6186377;28;20265;-73
2022/03/16 03:34:20;;;;;;;19.77;16.83;;;;;;;;;;6186044;28;20226;-73
2022/03/16 03:37:41;;;;;;;19.80;16.90;;;;;;;;;;6184568;28;20227;-73
2022/03/16 03:41:01;;;;;;;25.00;17.37;;;;;;;;;;6175486;28;20628;-73
2022/03/16 03:44:22;;;;;;;21.60;16.17;;;;;;;;;;6184304;28;20226;-73
2022/03/16 03:47:44;;;;;;;20.73;17.70;;;;;;;;;;6184418;28;20229;-74
2022/03/16 03:51:05;;;;;;;19.67;16.90;;;;;;;;;;6186776;28;20229;-73
2022/03/16 03:54:26;;;;;;;27.20;20.57;;;;;;;;;;6184114;28;20328;-73
2022/03/16 03:57:47;;;;;;;23.13;16.80;;;;;;;;;;6188440;28;20525;-74
2022/03/16 04:01:08;;;;;;;25.13;17.40;;;;;;;;;;6181658;28;20242;-73
2022/03/16 04:04:30;;;;;;;26.77;17.70;;;;;;;;;;6184885;28;20600;-73
2022/03/16 04:07:51;;;;;;;22.67;18.10;;;;;;;;;;6185339;28;20610;-74
2022/03/16 04:11:12;;;;;;;24.17;17.50;;;;;;;;;;6182034;28;20233;-73
2022/03/16 04:14:33;;;;;;;26.70;20.50;;;;;;;;;;6181875;28;20527;-73
2022/03/16 04:17:54;;;;;;;27.07;18.70;;;;;;;;;;6183246;28;20225;-74
2022/03/16 04:21:16;;;;;;;25.20;19.93;;;;;;;;;;6183355;28;20316;-73
2022/03/16 04:24:37;;;;;;;21.13;16.50;;;;;;;;;;6186947;28;20238;-74
2022/03/16 04:27:58;;;;;;;20.87;16.30;;;;;;;;;;6185191;28;20730;-73
2022/03/16 04:31:19;;;;;;;26.30;17.33;;;;;;;;;;6188281;28;20269;-74
2022/03/16 04:34:40;;;;;;;23.20;18.27;;;;;;;;;;6183871;28;20648;-73
2022/03/16 04:38:03;;;;;;;24.20;17.57;;;;;;;;;;6180917;28;20222;-73
2022/03/16 04:41:24;;;;;;;32.33;25.43;;;;;;;;;;6184970;28;20226;-73
2022/03/16 04:44:45;;;;;;;51.90;46.13;;;;;;;;;;6181420;28;20238;-74
2022/03/16 04:48:07;;;;;;;33.60;27.37;;;;;;;;;;6184278;28;20238;-74
2022/03/16 04:51:28;;;;;;;51.70;45.87;;;;;;;;;;6183587;28;20233;-74
2022/03/16 04:54:50;;;;;;;33.40;28.10;;;;;;;;;;6184793;28;20238;-75
2022/03/16 04:58:12;;;;;;;27.13;20.77;;;;;;;;;;6187063;28;20582;-74
2022/03/16 05:01:33;;;;;;;27.47;21.07;;;;;;;;;;6184117;28;20233;-74
2022/03/16 05:04:54;;;;;;;36.63;28.03;;;;;;;;;;6187746;28;20233;-74
2022/03/16 05:08:15;;;;;;;33.50;26.20;;;;;;;;;;6187150;28;20246;-74
2022/03/16 05:11:40;;;;;;;26.50;21.87;;;;;;;;;;6185126;28;20320;-74
2022/03/16 05:15:01;;;;;;;42.03;31.70;;;;;;;;;;6190282;28;20535;-74
2022/03/16 05:18:23;;;;;;;30.17;23.70;;;;;;;;;;6191180;28;20261;-73
2022/03/16 05:21:44;;;;;;;24.80;18.70;;;;;;;;;;6188320;28;20222;-75
2022/03/16 05:25:06;;;;;;;28.63;20.00;;;;;;;;;;6185511;28;20238;-74
2022/03/16 05:28:28;;;;;;;27.10;20.83;;;;;;;;;;6189815;28;20218;-75
2022/03/16 05:31:48;;;;;;;27.23;18.03;;;;;;;;;;6191805;28;20218;-75
2022/03/16 05:35:10;;;;;;;24.87;20.77;;;;;;;;;;6187851;28;20234;-76
2022/03/16 05:38:31;;;;;;;26.00;19.97;;;;;;;;;;6187496;28;20324;-74
2022/03/16 05:41:52;;;;;;;33.00;26.90;;;;;;;;;;6186677;28;20230;-74
2022/03/16 05:45:14;;;;;;;66.90;59.67;;;;;;;;;;6188014;28;20237;-75
2022/03/16 05:48:35;;;;;;;36.97;28.93;;;;;;;;;;6191078;28;20221;-74
2022/03/16 05:51:55;;;;;;;27.27;20.47;;;;;;;;;;6188898;28;20317;-74
2022/03/16 05:55:16;;;;;;;23.40;18.30;;;;;;;;;;6186622;28;20308;-74
2022/03/16 05:58:36;;;;;;;25.30;18.77;;;;;;;;;;6188317;28;20229;-74
2022/03/16 06:01:59;;;;;;;23.13;19.37;;;;;;;;;;6179278;28;20612;-73
2022/03/16 06:05:20;;;;;;;26.33;19.27;;;;;;;;;;6173601;28;20356;-73
2022/03/16 06:08:41;;;;;;;25.03;18.97;;;;;;;;;;6180709;28;20238;-70
2022/03/16 06:12:02;;;;;;;26.03;18.77;;;;;;;;;;6181259;28;20225;-74
2022/03/16 06:15:24;;;;;;;27.23;18.37;;;;;;;;;;6168352;28;20237;-74
2022/03/16 06:18:46;;;;;;;25.50;19.07;;;;;;;;;;6186093;28;20313;-74
2022/03/16 06:22:07;;;;;;;24.50;18.33;;;;;;;;;;6191237;28;20572;-74
2022/03/16 06:25:28;;;;;;;25.10;19.17;;;;;;;;;;6187204;28;20257;-75
2022/03/16 06:28:49;;;;;;;26.03;18.13;;;;;;;;;;6189532;28;20225;-74
2022/03/16 06:32:09;;;;;;;26.30;18.00;;;;;;;;;;6185782;28;20239;-73
2022/03/16 06:35:32;;;;;;;21.07;16.43;;;;;;;;;;6188542;28;20229;-73
2022/03/16 06:38:53;;;;;;;27.17;18.40;;;;;;;;;;6192558;28;20226;-74
2022/03/16 06:42:13;;;;;;;23.77;18.00;;;;;;;;;;6188248;28;20221;-74
2022/03/16 06:45:34;;;;;;;23.63;19.43;;;;;;;;;;6185689;28;20234;-74
2022/03/16 06:48:55;;;;;;;23.37;19.60;;;;;;;;;;6187686;28;20233;-73
2022/03/16 06:52:17;;;;;;;24.87;18.80;;;;;;;;;;6185827;28;20633;-75
2022/03/16 06:55:38;;;;;;;21.77;17.47;;;;;;;;;;6189468;28;20250;-73
2022/03/16 06:58:59;;;;;;;23.23;18.30;;;;;;;;;;6185747;28;20249;-73
2022/03/16 07:02:20;;;;;;;22.80;18.97;;;;;;;;;;6186013;28;20815;-74
2022/03/16 07:05:42;;;;;;;20.53;15.27;;;;;;;;;;6185564;28;20222;-75
2022/03/16 07:09:04;;;;;;;19.80;17.47;;;;;;;;;;6190185;28;20241;-74
2022/03/16 07:12:28;;;;;;;21.97;16.30;;;;;;;;;;6191654;28;20221;-75
2022/03/16 07:15:49;;;;;;;26.23;17.70;;;;;;;;;;6191073;28;20234;-74
2022/03/16 07:19:10;;;;;;;25.20;17.67;;;;;;;;;;6188419;28;20325;-74
2022/03/16 07:22:31;;;;;;;22.93;17.33;;;;;;;;;;6191943;28;20239;-75
2022/03/16 07:25:53;;;;;;;24.93;19.47;;;;;;;;;;6188477;28;20816;-75
2022/03/16 07:29:14;;;;;;;22.63;17.70;;;;;;;;;;6187930;28;20258;-74
2022/03/16 07:32:38;;;;;;;26.77;20.77;;;;;;;;;;6188776;28;20231;-73
2022/03/16 07:35:59;;;;;;;27.60;22.27;;;;;;;;;;6165706;28;20229;-75
2022/03/16 07:39:19;;;;;;;37.07;31.50;;;;;;;;;;6188784;28;20230;-74
2022/03/16 07:42:45;;;;;;;20.30;18.17;;;;;;;;;;6181009;28;20592;-74
2022/03/16 07:46:06;;;;;;;22.17;17.03;;;;;;;;;;6188192;28;20238;-74
2022/03/16 07:49:28;;;;;;;20.30;16.13;;;;;;;;;;6186337;28;20635;-74
2022/03/16 07:52:48;;;;;;;20.50;17.70;;;;;;;;;;6185789;28;20234;-74
2022/03/16 07:56:09;;;;;;;27.50;22.67;;;;;;;;;;6185268;28;20245;-74
2022/03/16 07:59:31;;;;;;;20.80;17.20;;;;;;;;;;6190608;28;20222;-74
2022/03/16 08:02:53;;;;;;;22.73;17.43;;;;;;;;;;6190023;28;20614;-74
2022/03/16 08:06:14;;;;;;;22.97;15.13;;;;;;;;;;6186002;28;20229;-74
2022/03/16 08:09:36;;;;;;;17.03;13.83;;;;;;;;;;6180893;28;20237;-75
2022/03/16 08:12:56;;;;;;;20.93;15.70;;;;;;;;;;6189155;28;20234;-75
2022/03/16 08:16:19;;;;;;;17.97;14.13;;;;;;;;;;6188431;28;20237;-74
2022/03/16 08:19:40;;;;;;;17.07;14.17;;;;;;;;;;6189353;28;20234;-74
2022/03/16 08:23:00;;;;;;;19.57;13.20;;;;;;;;;;6189786;28;20230;-74
2022/03/16 08:26:23;;;;;;;20.47;13.87;;;;;;;;;;6185755;28;20599;-74
2022/03/16 08:29:44;;;;;;;17.83;14.10;;;;;;;;;;6191685;28;20757;-74
2022/03/16 08:33:06;;;;;;;15.03;13.43;;;;;;;;;;6188849;28;20233;-73
2022/03/16 08:36:27;;;;;;;15.17;12.63;;;;;;;;;;6190467;28;20237;-74
2022/03/16 08:39:49;;;;;;;15.70;12.77;;;;;;;;;;6193169;28;20226;-75
2022/03/16 08:43:10;;;;;;;18.17;13.13;;;;;;;;;;6194823;28;20241;-74
2022/03/16 08:46:31;;;;;;;19.37;14.93;;;;;;;;;;6189888;28;20221;-73
2022/03/16 08:49:55;;;;;;;16.93;14.37;;;;;;;;;;6194768;28;20229;-74
2022/03/16 08:53:16;;;;;;;19.53;14.97;;;;;;;;;;6195910;28;20234;-74
2022/03/16 08:56:36;;;;;;;16.63;12.50;;;;;;;;;;6190321;28;20494;-74
2022/03/16 08:59:57;;;;;;;17.17;12.93;;;;;;;;;;6193433;28;20225;-74
2022/03/16 09:03:18;;;;;;;13.77;11.73;;;;;;;;;;6188917;28;20510;-72
2022/03/16 09:06:40;;;;;;;15.30;13.03;;;;;;;;;;6194285;28;20225;-75
2022/03/16 09:10:02;;;;;;;17.43;13.47;;;;;;;;;;6192325;28;20670;-74
2022/03/16 09:13:23;;;;;;;15.60;11.67;;;;;;;;;;6185342;28;20253;-74
2022/03/16 09:16:45;;;;;;;15.00;12.90;;;;;;;;;;6195730;28;20226;-74
2022/03/16 09:20:07;;;;;;;14.17;12.67;;;;;;;;;;6194041;28;20222;-75
2022/03/16 09:23:31;;;;;;;15.60;12.73;;;;;;;;;;6192432;28;20222;-74
2022/03/16 09:26:54;;;;;;;15.87;13.03;;;;;;;;;;6190730;28;20611;-74
2022/03/16 09:30:14;;;;;;;15.30;13.13;;;;;;;;;;6191558;28;20237;-75
2022/03/16 09:33:35;;;;;;;13.13;11.70;;;;;;;;;;6192367;28;20225;-74
2022/03/16 09:36:56;;;;;;;16.00;13.37;;;;;;;;;;6180497;28;20238;-74
2022/03/16 09:40:18;;;;;;;16.40;13.53;;;;;;;;;;6192577;28;20238;-74
2022/03/16 09:43:40;;;;;;;18.97;12.13;;;;;;;;;;6189778;28;20936;-74
2022/03/16 09:47:01;;;;;;;18.23;13.17;;;;;;;;;;6190058;28;20596;-74
2022/03/16 09:50:22;;;;;;;23.03;20.63;;;;;;;;;;6189834;28;20233;-73
2022/03/16 09:53:43;;;;;;;18.87;16.93;;;;;;;;;;6197560;28;20229;-75
2022/03/16 09:57:06;;;;;;;16.57;13.63;;;;;;;;;;6189808;28;20320;-74
2022/03/16 10:00:27;;;;;;;13.77;11.50;;;;;;;;;;6191981;28;20690;-74
2022/03/16 10:03:48;;;;;;;13.07;11.37;;;;;;;;;;6191799;28;20233;-74
2022/03/16 10:07:09;;;;;;;13.40;10.37;;;;;;;;;;6189617;28;20246;-74
2022/03/16 10:14:11;;;;;;;12.87;11.03;;;;;;;;;;6178935;28;20242;-74
2022/03/16 10:17:44;;;;;;;15.20;10.93;;;;;;;;;;6193126;28;20229;-74
2022/03/16 10:21:05;;;;;;;11.97;10.07;;;;;;;;;;6193849;28;20234;-75
2022/03/16 10:24:29;;;;;;;12.90;10.77;;;;;;;;;;6166414;28;20221;-75
2022/03/16 10:27:50;;;;;;;11.20;8.77;;;;;;;;;;6194426;28;20234;-73
2022/03/16 10:31:15;;;;;;;12.23;8.10;;;;;;;;;;6193304;28;20238;-74
2022/03/16 10:34:36;;;;;;;10.47;7.63;;;;;;;;;;6193941;28;20593;-75
2022/03/16 10:38:07;;;;;;;10.70;6.80;;;;;;;;;;6192806;28;20252;-74
2022/03/16 10:49:03;;;;;;;7.83;6.50;;;;;;;;;;6192154;28;20225;-75
2022/03/16 10:52:27;;;;;;;8.73;6.23;;;;;;;;;;6198710;28;20221;-74
2022/03/16 10:55:48;;;;;;;9.70;7.57;;;;;;;;;;6189957;28;20237;-73
2022/03/16 10:59:09;;;;;;;9.60;7.73;;;;;;;;;;6189719;28;20237;-75
2022/03/16 11:02:34;;;;;;;9.23;6.77;;;;;;;;;;6188003;28;20222;-74
2022/03/16 11:05:56;;;;;;;10.20;6.63;;;;;;;;;;6184571;28;20230;-74
2022/03/16 11:09:17;;;;;;;9.47;7.23;;;;;;;;;;6188435;28;20623;-74
2022/03/16 11:16:20;;;;;;;11.40;7.57;;;;;;;;;;6188923;28;20256;-74
2022/03/16 11:19:44;;;;;;;11.77;8.03;;;;;;;;;;6189573;28;20313;-74
2022/03/16 11:27:09;;;;;;;8.27;6.13;;;;;;;;;;6192087;28;20753;-75
2022/03/16 11:30:33;;;;;;;11.23;7.30;;;;;;;;;;6185828;28;20238;-74
2022/03/16 11:33:55;;;;;;;11.70;6.93;;;;;;;;;;6192784;28;20316;-74
2022/03/16 11:37:16;;;;;;;9.87;6.63;;;;;;;;;;6192642;28;20297;-75
2022/03/16 11:40:40;;;;;;;11.80;7.03;;;;;;;;;;6190192;28;20230;-75
2022/03/16 11:44:32;;;;;;;11.40;9.07;;;;;;;;;;6173128;28;20231;-73
2022/03/16 11:47:53;;;;;;;10.23;8.30;;;;;;;;;;6184829;28;20344;-74
2022/03/16 11:51:23;;;;;;;11.10;7.83;;;;;;;;;;6182397;28;20564;-74
2022/03/16 11:54:45;;;;;;;12.77;8.27;;;;;;;;;;6183537;28;20318;-73
2022/03/16 11:58:26;;;;;;;11.60;8.17;;;;;;;;;;6181857;28;20249;-74
2022/03/16 12:01:48;;;;;;;10.17;8.67;;;;;;;;;;6186569;28;20589;-75
2022/03/16 12:05:12;;;;;;;11.47;8.40;;;;;;;;;;6188222;28;20230;-74
2022/03/16 12:08:37;;;;;;;9.90;8.23;;;;;;;;;;6189261;28;20231;-74
2022/03/16 12:15:55;;;;;;;10.00;8.90;;;;;;;;;;6185918;28;20234;-74
2022/03/16 12:19:29;;;;;;;10.43;7.37;;;;;;;;;;6188989;28;20997;-73
2022/03/16 12:22:51;;;;;;;12.20;8.10;;;;;;;;;;6182749;28;20316;-73
2022/03/16 12:26:12;;;;;;;10.63;7.83;;;;;;;;;;6187482;28;20513;-74
2022/03/16 12:29:34;;;;;;;7.47;5.90;;;;;;;;;;6191439;28;20230;-75
2022/03/16 12:32:57;;;;;;;7.80;6.73;;;;;;;;;;6185878;28;20270;-71
2022/03/16 12:36:21;;;;;;;8.33;6.67;;;;;;;;;;6185830;28;20513;-73
2022/03/16 12:39:46;;;;;;;8.83;6.00;;;;;;;;;;6189924;28;20241;-73
2022/03/16 12:43:07;;;;;;;7.33;5.90;;;;;;;;;;6189550;28;20234;-74
2022/03/16 12:46:35;;;;;;;10.10;6.57;;;;;;;;;;6190617;28;20491;-74
2022/03/16 12:49:57;;;;;;;9.43;6.67;;;;;;;;;;6176444;28;20242;-75
2022/03/16 12:53:44;;;;;;;8.73;5.60;;;;;;;;;;6195694;28;20294;-74
2022/03/16 12:57:08;;;;;;;11.77;10.33;;;;;;;;;;6186598;28;20233;-74
2022/03/16 13:00:34;;;;;;;9.77;8.10;;;;;;;;;;6188923;28;20452;-75
2022/03/16 13:04:00;;;;;;;8.73;6.73;;;;;;;;;;6188251;28;20635;-74
2022/03/16 13:07:23;;;;;;;10.57;9.57;;;;;;;;;;6192337;28;20544;-75
2022/03/16 13:14:23;;;;;;;10.67;7.77;;;;;;;;;;6184775;28;20372;-74
2022/03/16 13:17:46;;;;;;;9.60;6.70;;;;;;;;;;6188305;28;20234;-74
2022/03/16 13:21:23;;;;;;;8.40;6.53;;;;;;;;;;6190818;28;20237;-75
2022/03/16 13:24:49;;;;;;;7.63;6.33;;;;;;;;;;6187040;28;20238;-74
2022/03/16 13:28:09;;;;;;;9.60;6.43;;;;;;;;;;6194393;28;20341;-74
2022/03/16 13:31:31;;;;;;;9.47;8.57;;;;;;;;;;6190161;28;20218;-74
2022/03/16 13:34:52;;;;;;;8.37;7.57;;;;;;;;;;6193389;28;20229;-74
2022/03/16 13:38:13;;;;;;;10.87;7.07;;;;;;;;;;6193135;28;20225;-74
2022/03/16 13:42:04;;;;;;;10.40;7.50;;;;;;;;;;6193583;28;20234;-74
2022/03/16 13:45:18;;;;;;;10.03;8.53;;;;;;;;;;6188983;28;20788;-73
2022/03/16 13:48:40;;;;;;;9.57;8.00;;;;;;;;;;6190275;28;20218;-74
2022/03/16 13:52:03;;;;;;;9.30;8.40;;;;;;;;;;6193845;28;20236;-74
2022/03/16 13:55:24;;;;;;;8.70;7.90;;;;;;;;;;6187652;28;20225;-75
2022/03/16 13:58:49;;;;;;;9.53;8.53;;;;;;;;;;6192628;28;20641;-74
2022/03/16 14:02:14;;;;;;;11.20;10.13;;;;;;;;;;6190831;28;20919;-74
2022/03/16 14:05:39;;;;;;;10.07;8.70;;;;;;;;;;6187243;28;20222;-74
2022/03/16 14:08:59;;;;;;;12.17;11.07;;;;;;;;;;6193442;28;20218;-75
2022/03/16 14:12:22;;;;;;;12.17;9.70;;;;;;;;;;6185664;28;20241;-74
2022/03/16 14:15:44;;;;;;;10.60;9.10;;;;;;;;;;6192422;28;20230;-74
2022/03/16 14:19:27;;;;;;;13.43;11.13;;;;;;;;;;6194330;28;20702;-76
2022/03/16 14:22:52;;;;;;;12.60;11.37;;;;;;;;;;6191503;28;20225;-76
2022/03/16 14:26:13;;;;;;;12.77;11.53;;;;;;;;;;6191418;28;20237;-75
2022/03/16 14:29:33;;;;;;;14.60;11.53;;;;;;;;;;6190876;28;20259;-75
2022/03/16 14:33:00;;;;;;;13.20;11.40;;;;;;;;;;6193363;28;20262;-73
2022/03/16 14:36:26;;;;;;;12.17;10.63;;;;;;;;;;6189891;28;20245;-74
2022/03/16 14:39:49;;;;;;;12.90;10.63;;;;;;;;;;6193530;28;20238;-75
2022/03/16 14:43:11;;;;;;;12.93;10.47;;;;;;;;;;6193907;28;20230;-73
2022/03/16 14:46:32;;;;;;;15.80;13.13;;;;;;;;;;6190914;28;20292;-73
2022/03/16 14:49:58;;;;;;;11.97;10.73;;;;;;;;;;6190414;28;20328;-75
2022/03/16 14:53:21;;;;;;;14.20;10.83;;;;;;;;;;6196639;28;20249;-74
2022/03/16 14:56:41;;;;;;;14.67;12.90;;;;;;;;;;6183371;28;20257;-75
2022/03/16 15:00:05;;;;;;;13.87;12.43;;;;;;;;;;6191097;28;20233;-73
2022/03/16 15:03:26;;;;;;;15.53;12.23;;;;;;;;;;6192359;28;20499;-74
2022/03/16 15:06:48;;;;;;;14.40;12.00;;;;;;;;;;6190154;28;20964;-74
2022/03/16 15:10:12;;;;;;;13.80;12.47;;;;;;;;;;6192257;28;20518;-74
2022/03/16 15:13:32;;;;;;;13.73;12.40;;;;;;;;;;6184507;28;20238;-74
2022/03/16 15:16:53;;;;;;;13.63;12.33;;;;;;;;;;6191253;28;20345;-74
2022/03/16 15:20:14;;;;;;;12.87;11.50;;;;;;;;;;6189389;28;20234;-76
2022/03/16 15:23:37;;;;;;;14.70;13.23;;;;;;;;;;6191558;28;20218;-74
2022/03/16 15:26:57;;;;;;;21.10;18.93;;;;;;;;;;6188744;28;20222;-74
2022/03/16 15:30:19;;;;;;;14.93;13.33;;;;;;;;;;6187146;28;20229;-74
2022/03/16 15:33:40;;;;;;;15.53;14.10;;;;;;;;;;6191154;28;20229;-75
2022/03/16 15:37:00;;;;;;;15.10;13.53;;;;;;;;;;6188640;28;20233;-74
2022/03/16 15:44:02;;;;;;;16.97;14.57;;;;;;;;;;6190130;28;20229;-74
2022/03/16 15:47:22;;;;;;;15.80;11.93;;;;;;;;;;6180048;28;20503;-74
2022/03/16 15:50:43;;;;;;;24.13;13.80;;;;;;;;;;6185098;28;20329;-74
2022/03/16 15:54:04;;;;;;;15.00;12.30;;;;;;;;;;6195042;28;20647;-75
2022/03/16 15:57:26;;;;;;;17.47;15.87;;;;;;;;;;6187739;28;20237;-73
2022/03/16 16:00:47;;;;;;;17.73;15.50;;;;;;;;;;6191337;28;20233;-74
2022/03/16 16:04:08;;;;;;;15.17;13.67;;;;;;;;;;6190482;28;20230;-74
2022/03/16 16:07:31;;;;;;;12.77;11.53;;;;;;;;;;6187204;28;20222;-74
2022/03/16 16:14:27;;;;;;;19.67;17.67;;;;;;;;;;6194494;28;20222;-75
2022/03/16 16:17:48;;;;;;;16.30;14.60;;;;;;;;;;6186975;28;20241;-74
2022/03/16 16:21:09;;;;;;;17.23;15.30;;;;;;;;;;6188789;28;20237;-76
2022/03/16 16:24:30;;;;;;;24.47;21.87;;;;;;;;;;6173024;28;20233;-74
2022/03/16 16:27:53;;;;;;;19.30;17.27;;;;;;;;;;6190403;28;22233;-74
2022/03/16 16:31:15;;;;;;;14.60;13.00;;;;;;;;;;6172074;28;20238;-75
2022/03/16 16:34:36;;;;;;;14.70;13.30;;;;;;;;;;6177113;28;20604;-74
2022/03/16 16:37:56;;;;;;;16.67;15.17;;;;;;;;;;6191882;28;20237;-74
2022/03/16 16:41:17;;;;;;;17.20;15.20;;;;;;;;;;6187160;28;20234;-74
2022/03/16 16:44:38;;;;;;;16.73;14.37;;;;;;;;;;6183960;28;20230;-74
2022/03/16 16:48:01;;;;;;;20.03;16.90;;;;;;;;;;6190227;28;20863;-74
2022/03/16 16:51:23;;;;;;;27.37;24.50;;;;;;;;;;6183187;28;20237;-73
2022/03/16 16:54:45;;;;;;;17.40;15.20;;;;;;;;;;6188058;28;20237;-74
2022/03/16 16:58:07;;;;;;;19.00;16.70;;;;;;;;;;6180863;28;20321;-74
2022/03/16 17:01:28;;;;;;;19.27;17.37;;;;;;;;;;6186497;28;20313;-74
2022/03/16 17:04:50;;;;;;;15.13;13.63;;;;;;;;;;6192364;28;20230;-74
2022/03/16 17:08:13;;;;;;;14.60;12.97;;;;;;;;;;6189360;28;20234;-74
2022/03/16 17:11:35;;;;;;;16.60;14.97;;;;;;;;;;6184869;28;20234;-74
2022/03/16 17:14:56;;;;;;;18.03;16.23;;;;;;;;;;6190023;28;20226;-74
2022/03/16 17:18:17;;;;;;;17.23;15.43;;;;;;;;;;6191901;28;20499;-73
2022/03/16 17:21:40;;;;;;;16.50;14.87;;;;;;;;;;6194756;28;20514;-75
2022/03/16 17:25:03;;;;;;;19.67;17.57;;;;;;;;;;6193806;28;20226;-75
2022/03/16 17:28:23;;;;;;;16.40;14.70;;;;;;;;;;6193298;28;20237;-74
2022/03/16 17:31:44;;;;;;;16.57;14.77;;;;;;;;;;6193522;28;20238;-74
2022/03/16 17:35:09;;;;;;;18.40;16.60;;;;;;;;;;6184619;28;20226;-74
2022/03/16 17:38:32;;;;;;;16.00;14.37;;;;;;;;;;6189987;28;20233;-75
2022/03/16 17:45:35;;;;;;;18.83;15.97;;;;;;;;;;6166189;28;20533;-74
2022/03/16 17:49:04;;;;;;;15.60;14.03;;;;;;;;;;6159858;28;20381;-73
2022/03/16 17:52:25;;;;;;;20.23;18.23;;;;;;;;;;6189035;28;20229;-75
2022/03/16 17:59:26;;;;;;;17.43;14.03;;;;;;;;;;6182409;28;20735;-74
2022/03/16 18:02:47;;;;;;;15.90;14.33;;;;;;;;;;6184338;28;20238;-74
2022/03/16 18:06:07;;;;;;;15.33;13.53;;;;;;;;;;6174966;28;20257;-74
2022/03/16 18:09:28;;;;;;;17.37;15.03;;;;;;;;;;6180596;28;20283;-74
2022/03/16 18:12:58;;;;;;;18.23;13.50;;;;;;;;;;6188644;28;20281;-74
2022/03/16 18:16:19;;;;;;;17.27;14.47;;;;;;;;;;6184605;28;20241;-74
2022/03/16 18:19:40;;;;;;;21.47;16.93;;;;;;;;;;6189066;28;20225;-74
2022/03/16 18:23:01;;;;;;;16.43;13.60;;;;;;;;;;6174282;28;20340;-75
2022/03/16 18:26:23;;;;;;;16.97;13.37;;;;;;;;;;6185653;28;20312;-75
2022/03/16 18:29:46;;;;;;;16.03;13.90;;;;;;;;;;6188472;28;20230;-74
2022/03/16 18:33:07;;;;;;;20.47;17.20;;;;;;;;;;6185989;28;20242;-74
2022/03/16 18:36:28;;;;;;;17.63;15.53;;;;;;;;;;6188022;28;20271;-73
2022/03/16 18:39:52;;;;;;;13.23;11.70;;;;;;;;;;6185993;28;20241;-73
2022/03/16 18:43:14;;;;;;;13.57;12.20;;;;;;;;;;6178764;28;20234;-74
2022/03/16 18:46:36;;;;;;;17.80;15.90;;;;;;;;;;6186509;28;20238;-73
2022/03/16 18:49:57;;;;;;;18.47;15.20;;;;;;;;;;6183606;28;20225;-74
2022/03/16 18:53:18;;;;;;;13.03;11.53;;;;;;;;;;6180654;28;20332;-73
2022/03/16 18:56:39;;;;;;;17.23;11.70;;;;;;;;;;6184779;28;20233;-73
2022/03/16 19:00:00;;;;;;;20.60;18.63;;;;;;;;;;6179282;28;20241;-72
2022/03/16 19:03:22;;;;;;;18.57;16.67;;;;;;;;;;6185780;28;20233;-73
2022/03/16 19:06:43;;;;;;;15.27;12.73;;;;;;;;;;6187706;28;20229;-74
2022/03/16 19:10:05;;;;;;;17.47;12.27;;;;;;;;;;6182053;28;20234;-74
2022/03/16 19:17:04;;;;;;;14.03;11.73;;;;;;;;;;6190549;28;20226;-74
2022/03/16 19:20:26;;;;;;;13.43;11.63;;;;;;;;;;6194988;28;20331;-73
2022/03/16 19:23:47;;;;;;;17.83;16.03;;;;;;;;;;6186393;28;20237;-73
2022/03/16 19:27:09;;;;;;;12.60;11.50;;;;;;;;;;6182131;28;20222;-73
2022/03/16 19:30:30;;;;;;;15.47;13.40;;;;;;;;;;6185607;28;20233;-74
2022/03/16 19:33:51;;;;;;;33.17;29.67;;;;;;;;;;6187604;28;20226;-74
2022/03/16 19:37:16;;;;;;;21.67;18.43;;;;;;;;;;6183574;28;20234;-73
2022/03/16 19:40:37;;;;;;;14.93;12.80;;;;;;;;;;6186742;28;20225;-74
2022/03/16 19:43:58;;;;;;;16.97;15.23;;;;;;;;;;6181938;28;20234;-74
2022/03/16 19:47:19;;;;;;;15.00;12.67;;;;;;;;;;6186556;28;20810;-73
2022/03/16 19:50:40;;;;;;;13.17;11.73;;;;;;;;;;6183773;28;20218;-73
2022/03/16 19:54:02;;;;;;;13.60;12.30;;;;;;;;;;6183697;28;20234;-74
2022/03/16 19:57:22;;;;;;;19.23;16.07;;;;;;;;;;6184740;28;20635;-75
2022/03/16 20:00:43;;;;;;;13.00;11.70;;;;;;;;;;6184194;28;20262;-74
2022/03/16 20:04:05;;;;;;;16.27;14.73;;;;;;;;;;6185886;28;20260;-74
2022/03/16 20:07:26;;;;;;;13.13;10.30;;;;;;;;;;6186201;28;20348;-73
2022/03/16 20:10:48;;;;;;;10.93;9.83;;;;;;;;;;6171002;28;20229;-74
2022/03/16 20:14:09;;;;;;;11.20;10.13;;;;;;;;;;6187407;28;20238;-74
2022/03/16 20:17:30;;;;;;;10.17;9.27;;;;;;;;;;6183773;28;20719;-75
2022/03/16 20:20:54;;;;;;;9.67;8.60;;;;;;;;;;6174425;28;20229;-73
2022/03/16 20:24:15;;;;;;;12.10;10.10;;;;;;;;;;6180303;28;20325;-74
2022/03/16 20:27:37;;;;;;;12.33;11.00;;;;;;;;;;6184103;28;20511;-74